Aeroporto :
LOGIN :

Iscrizione | Disclaimer

   EN    FR    IT 

 










Sommario :    VFR   VFR Marginale   IFR   IFR Intensivo   IFR Molto Intensivo
Visibilità : 
Base nubi : 
>= 8 km
>= 3000ft
5 / 8 km
1000 / 3000 ft
1500m / 5 km
500 / 1000 ft
800 / 1500m
200 / 500 ft
< 800m
< 200 ft
Simboli :   Temporali  Nebbia  Neve Forte  Precipitazioni Forti  Vento > 20 kt
SIGMETs :   Varie  Temporali  Ghiacco  Turbolenza  Onda orograficha  Ceneri Vulcaniche







- Altitudine del aeroporto : 1363 ft


ETIC - Grafenwohr Army Air Field

ULTIMO METAR :
  • 191356Z AUTO 09005KT 9999 CLR 22/02 A3036 RMK AO2 SLP281 T02150022 $

METARs OBSOLETI :
  • 191256Z AUTO 07011G19KT 9999 CLR 21/02 A3037 RMK AO2 SLP286 T02140016 $
  • 191156Z AUTO 10012G17KT 9999 CLR 21/03 A3039 RMK AO2 SLP289 T02070025 10210 20108 57005 $

TAF TAF ETIC
Valido dal 19 a 14 ore il 20 a 20 ore UTC


191410Z 1914/2020 09009KT 9999 SKC QNH3034INS
BECMG 1921/1922 VRB06KT 8000 BR FEW020 QNH3039INS
BECMG 2008/2009 VRB06KT 9999 NSW SKC QNH3034INS TX23/1914Z TN06/2004Z
Nessun NOTAM noto per questo aeroporto.



MetMap, La meteo Aeronautica in un colpo d'occhio ! - Copyright ORBIFLY Dicembre 2007 - Disclaimer

ORBIFLY MET'MAP TEAM :

Programmazione e sviluppo : Alexandra Zaïnal
Concezione e sviluppo : Baudouin d'Aumeries
Co-Programmazione e sviluppo : Marc-Olivier Méhu
Supporto tecnico e logistico : Manuel Goepfert
Aiuto per la traduzione : Arnaldo La Scala

Contatto : metmap@orbifly.com




FONTI E CREDITI :

   NOAA